sensor_id;sensor_type;location;lat;lon;timestamp;P1;durP1;ratioP1;P2;durP2;ratioP2
52942;SDS011;38809;53.300;6.614;2022-10-16T00:01:58;5.43;;;1.47;;
52942;SDS011;38809;53.300;6.614;2022-10-16T00:04:24;4.18;;;1.50;;
52942;SDS011;38809;53.300;6.614;2022-10-16T00:06:50;3.88;;;1.38;;
52942;SDS011;38809;53.300;6.614;2022-10-16T00:09:15;8.33;;;1.50;;
52942;SDS011;38809;53.300;6.614;2022-10-16T00:11:41;4.72;;;1.40;;
52942;SDS011;38809;53.300;6.614;2022-10-16T00:14:08;4.35;;;1.30;;
52942;SDS011;38809;53.300;6.614;2022-10-16T00:16:37;8.15;;;1.40;;
52942;SDS011;38809;53.300;6.614;2022-10-16T00:19:03;4.63;;;1.10;;
52942;SDS011;38809;53.300;6.614;2022-10-16T00:21:29;5.35;;;1.40;;
52942;SDS011;38809;53.300;6.614;2022-10-16T00:24:03;5.47;;;1.52;;
52942;SDS011;38809;53.300;6.614;2022-10-16T00:28:59;5.40;;;1.42;;
52942;SDS011;38809;53.300;6.614;2022-10-16T00:31:25;6.18;;;1.40;;
52942;SDS011;38809;53.300;6.614;2022-10-16T00:33:52;5.47;;;1.30;;
52942;SDS011;38809;53.300;6.614;2022-10-16T00:36:19;4.28;;;1.50;;
52942;SDS011;38809;53.300;6.614;2022-10-16T00:38:46;6.00;;;1.20;;
52942;SDS011;38809;53.300;6.614;2022-10-16T00:41:13;6.55;;;1.38;;
52942;SDS011;38809;53.300;6.614;2022-10-16T00:43:44;6.65;;;1.30;;
52942;SDS011;38809;53.300;6.614;2022-10-16T00:46:28;4.13;;;1.23;;
52942;SDS011;38809;53.300;6.614;2022-10-16T00:49:04;2.70;;;1.13;;
52942;SDS011;38809;53.300;6.614;2022-10-16T00:51:42;4.57;;;1.42;;
52942;SDS011;38809;53.300;6.614;2022-10-16T00:54:24;3.53;;;1.02;;
52942;SDS011;38809;53.300;6.614;2022-10-16T00:56:52;6.68;;;1.20;;
52942;SDS011;38809;53.300;6.614;2022-10-16T00:59:21;4.35;;;1.10;;
52942;SDS011;38809;53.300;6.614;2022-10-16T01:01:50;4.93;;;1.20;;
52942;SDS011;38809;53.300;6.614;2022-10-16T01:12:39;3.95;;;1.23;;
52942;SDS011;38809;53.300;6.614;2022-10-16T01:18:24;3.30;;;1.05;;
52942;SDS011;38809;53.300;6.614;2022-10-16T01:21:13;4.10;;;1.05;;
52942;SDS011;38809;53.300;6.614;2022-10-16T01:26:36;3.95;;;1.20;;
52942;SDS011;38809;53.300;6.614;2022-10-16T01:29:08;4.45;;;1.10;;
52942;SDS011;38809;53.300;6.614;2022-10-16T01:31:39;3.67;;;0.90;;
52942;SDS011;38809;53.300;6.614;2022-10-16T01:34:10;5.68;;;1.35;;
52942;SDS011;38809;53.300;6.614;2022-10-16T01:36:45;5.50;;;0.88;;
52942;SDS011;38809;53.300;6.614;2022-10-16T01:39:18;4.28;;;1.00;;
52942;SDS011;38809;53.300;6.614;2022-10-16T01:41:56;3.17;;;0.98;;
52942;SDS011;38809;53.300;6.614;2022-10-16T01:44:29;3.67;;;1.10;;
52942;SDS011;38809;53.300;6.614;2022-10-16T01:46:58;5.53;;;0.88;;
52942;SDS011;38809;53.300;6.614;2022-10-16T01:49:27;4.32;;;0.98;;
52942;SDS011;38809;53.300;6.614;2022-10-16T01:51:57;3.40;;;1.15;;
52942;SDS011;38809;53.300;6.614;2022-10-16T01:54:27;3.50;;;0.90;;
52942;SDS011;38809;53.300;6.614;2022-10-16T01:56:56;3.70;;;1.13;;
52942;SDS011;38809;53.300;6.614;2022-10-16T01:59:23;6.03;;;1.20;;
52942;SDS011;38809;53.300;6.614;2022-10-16T02:01:55;4.03;;;1.30;;
52942;SDS011;38809;53.300;6.614;2022-10-16T02:04:32;2.22;;;1.20;;
52942;SDS011;38809;53.300;6.614;2022-10-16T02:07:02;3.05;;;1.10;;
52942;SDS011;38809;53.300;6.614;2022-10-16T02:09:29;2.42;;;1.17;;
52942;SDS011;38809;53.300;6.614;2022-10-16T02:11:57;2.65;;;0.98;;
52942;SDS011;38809;53.300;6.614;2022-10-16T02:14:28;2.58;;;1.02;;
52942;SDS011;38809;53.300;6.614;2022-10-16T02:16:54;5.00;;;1.20;;
52942;SDS011;38809;53.300;6.614;2022-10-16T02:19:19;4.25;;;1.17;;
52942;SDS011;38809;53.300;6.614;2022-10-16T02:21:49;4.28;;;1.13;;
52942;SDS011;38809;53.300;6.614;2022-10-16T02:27:16;3.20;;;1.17;;
52942;SDS011;38809;53.300;6.614;2022-10-16T02:29:49;3.58;;;1.20;;
52942;SDS011;38809;53.300;6.614;2022-10-16T02:32:23;4.97;;;1.10;;
52942;SDS011;38809;53.300;6.614;2022-10-16T02:34:53;3.88;;;1.05;;
52942;SDS011;38809;53.300;6.614;2022-10-16T02:37:20;3.45;;;1.10;;
52942;SDS011;38809;53.300;6.614;2022-10-16T02:39:46;5.20;;;1.10;;
52942;SDS011;38809;53.300;6.614;2022-10-16T02:42:12;2.95;;;0.95;;
52942;SDS011;38809;53.300;6.614;2022-10-16T02:44:39;2.85;;;1.15;;
52942;SDS011;38809;53.300;6.614;2022-10-16T02:47:05;3.75;;;0.90;;
52942;SDS011;38809;53.300;6.614;2022-10-16T02:49:31;6.95;;;1.30;;
52942;SDS011;38809;53.300;6.614;2022-10-16T02:51:56;3.05;;;1.00;;
52942;SDS011;38809;53.300;6.614;2022-10-16T02:54:22;3.88;;;1.35;;
52942;SDS011;38809;53.300;6.614;2022-10-16T02:56:48;2.40;;;0.93;;
52942;SDS011;38809;53.300;6.614;2022-10-16T02:59:14;3.30;;;1.00;;
52942;SDS011;38809;53.300;6.614;2022-10-16T03:01:40;2.60;;;1.20;;
52942;SDS011;38809;53.300;6.614;2022-10-16T03:04:05;3.57;;;0.97;;
52942;SDS011;38809;53.300;6.614;2022-10-16T03:06:31;3.17;;;1.00;;
52942;SDS011;38809;53.300;6.614;2022-10-16T03:08:57;2.80;;;1.00;;
52942;SDS011;38809;53.300;6.614;2022-10-16T03:11:22;2.90;;;1.17;;
52942;SDS011;38809;53.300;6.614;2022-10-16T03:13:48;3.08;;;1.02;;
52942;SDS011;38809;53.300;6.614;2022-10-16T03:16:14;2.72;;;1.10;;
52942;SDS011;38809;53.300;6.614;2022-10-16T03:18:39;3.70;;;1.00;;
52942;SDS011;38809;53.300;6.614;2022-10-16T03:21:05;3.35;;;1.23;;
52942;SDS011;38809;53.300;6.614;2022-10-16T03:23:31;3.10;;;1.00;;
52942;SDS011;38809;53.300;6.614;2022-10-16T03:25:56;5.93;;;1.23;;
52942;SDS011;38809;53.300;6.614;2022-10-16T03:28:22;2.60;;;1.10;;
52942;SDS011;38809;53.300;6.614;2022-10-16T03:30:48;4.25;;;1.30;;
52942;SDS011;38809;53.300;6.614;2022-10-16T03:33:13;4.33;;;1.03;;
52942;SDS011;38809;53.300;6.614;2022-10-16T03:35:39;4.25;;;1.17;;
52942;SDS011;38809;53.300;6.614;2022-10-16T03:38:05;2.67;;;1.27;;
52942;SDS011;38809;53.300;6.614;2022-10-16T03:40:30;3.20;;;1.02;;
52942;SDS011;38809;53.300;6.614;2022-10-16T03:45:23;2.22;;;0.98;;
52942;SDS011;38809;53.300;6.614;2022-10-16T03:50:15;3.25;;;1.10;;
52942;SDS011;38809;53.300;6.614;2022-10-16T03:52:41;3.58;;;0.90;;
52942;SDS011;38809;53.300;6.614;2022-10-16T03:55:06;2.88;;;1.20;;
52942;SDS011;38809;53.300;6.614;2022-10-16T03:57:32;1.60;;;1.00;;
52942;SDS011;38809;53.300;6.614;2022-10-16T03:59:58;3.00;;;1.00;;
52942;SDS011;38809;53.300;6.614;2022-10-16T04:02:24;3.53;;;0.98;;
52942;SDS011;38809;53.300;6.614;2022-10-16T04:04:49;2.15;;;0.90;;
52942;SDS011;38809;53.300;6.614;2022-10-16T04:07:15;3.73;;;1.27;;
52942;SDS011;38809;53.300;6.614;2022-10-16T04:09:41;2.78;;;1.02;;
52942;SDS011;38809;53.300;6.614;2022-10-16T04:12:07;2.50;;;0.90;;
52942;SDS011;38809;53.300;6.614;2022-10-16T04:14:32;1.93;;;0.93;;
52942;SDS011;38809;53.300;6.614;2022-10-16T04:16:59;1.67;;;0.90;;
52942;SDS011;38809;53.300;6.614;2022-10-16T04:19:24;3.22;;;1.08;;
52942;SDS011;38809;53.300;6.614;2022-10-16T04:21:51;3.60;;;0.90;;
52942;SDS011;38809;53.300;6.614;2022-10-16T04:24:16;2.72;;;0.93;;
52942;SDS011;38809;53.300;6.614;2022-10-16T04:26:42;4.60;;;1.00;;
52942;SDS011;38809;53.300;6.614;2022-10-16T04:29:08;2.78;;;1.00;;
52942;SDS011;38809;53.300;6.614;2022-10-16T04:31:33;2.95;;;1.00;;
52942;SDS011;38809;53.300;6.614;2022-10-16T04:33:59;1.70;;;0.82;;
52942;SDS011;38809;53.300;6.614;2022-10-16T04:36:25;1.70;;;0.90;;
52942;SDS011;38809;53.300;6.614;2022-10-16T04:38:50;2.57;;;0.97;;
52942;SDS011;38809;53.300;6.614;2022-10-16T04:41:16;3.78;;;1.10;;
52942;SDS011;38809;53.300;6.614;2022-10-16T04:43:42;6.10;;;1.42;;
52942;SDS011;38809;53.300;6.614;2022-10-16T04:46:07;2.87;;;1.20;;
52942;SDS011;38809;53.300;6.614;2022-10-16T04:48:35;2.65;;;1.33;;
52942;SDS011;38809;53.300;6.614;2022-10-16T04:51:00;2.85;;;1.23;;
52942;SDS011;38809;53.300;6.614;2022-10-16T04:53:26;3.40;;;1.33;;
52942;SDS011;38809;53.300;6.614;2022-10-16T04:55:52;4.80;;;1.33;;
52942;SDS011;38809;53.300;6.614;2022-10-16T04:58:18;3.28;;;1.23;;
52942;SDS011;38809;53.300;6.614;2022-10-16T05:00:44;2.92;;;1.08;;
52942;SDS011;38809;53.300;6.614;2022-10-16T05:03:11;2.25;;;1.15;;
52942;SDS011;38809;53.300;6.614;2022-10-16T05:05:41;1.88;;;1.00;;
52942;SDS011;38809;53.300;6.614;2022-10-16T05:08:08;3.38;;;1.15;;
52942;SDS011;38809;53.300;6.614;2022-10-16T05:10:34;3.42;;;1.05;;
52942;SDS011;38809;53.300;6.614;2022-10-16T05:13:00;2.90;;;1.30;;
52942;SDS011;38809;53.300;6.614;2022-10-16T05:15:25;4.00;;;1.00;;
52942;SDS011;38809;53.300;6.614;2022-10-16T05:17:54;3.58;;;1.35;;
52942;SDS011;38809;53.300;6.614;2022-10-16T05:20:20;2.25;;;1.13;;
52942;SDS011;38809;53.300;6.614;2022-10-16T05:22:46;5.35;;;1.50;;
52942;SDS011;38809;53.300;6.614;2022-10-16T05:25:12;3.60;;;1.15;;
52942;SDS011;38809;53.300;6.614;2022-10-16T05:27:38;3.25;;;1.23;;
52942;SDS011;38809;53.300;6.614;2022-10-16T05:30:04;3.90;;;1.10;;
52942;SDS011;38809;53.300;6.614;2022-10-16T05:32:30;4.47;;;1.25;;
52942;SDS011;38809;53.300;6.614;2022-10-16T05:34:56;4.07;;;1.30;;
52942;SDS011;38809;53.300;6.614;2022-10-16T05:37:21;4.27;;;1.20;;
52942;SDS011;38809;53.300;6.614;2022-10-16T05:39:47;3.53;;;1.27;;
52942;SDS011;38809;53.300;6.614;2022-10-16T05:42:13;2.30;;;1.13;;
52942;SDS011;38809;53.300;6.614;2022-10-16T05:47:05;3.15;;;1.05;;
52942;SDS011;38809;53.300;6.614;2022-10-16T05:49:30;2.90;;;1.25;;
52942;SDS011;38809;53.300;6.614;2022-10-16T05:51:56;2.33;;;1.00;;
52942;SDS011;38809;53.300;6.614;2022-10-16T05:54:22;3.28;;;1.30;;
52942;SDS011;38809;53.300;6.614;2022-10-16T05:56:47;5.10;;;1.50;;
52942;SDS011;38809;53.300;6.614;2022-10-16T05:59:13;3.70;;;1.30;;
52942;SDS011;38809;53.300;6.614;2022-10-16T06:01:39;2.28;;;1.10;;
52942;SDS011;38809;53.300;6.614;2022-10-16T06:04:04;2.43;;;1.40;;
52942;SDS011;38809;53.300;6.614;2022-10-16T06:06:30;3.67;;;1.40;;
52942;SDS011;38809;53.300;6.614;2022-10-16T06:08:56;2.55;;;1.20;;
52942;SDS011;38809;53.300;6.614;2022-10-16T06:11:23;2.60;;;1.35;;
52942;SDS011;38809;53.300;6.614;2022-10-16T06:13:53;3.25;;;1.30;;
52942;SDS011;38809;53.300;6.614;2022-10-16T06:16:24;2.47;;;1.30;;
52942;SDS011;38809;53.300;6.614;2022-10-16T06:18:54;3.72;;;1.30;;
52942;SDS011;38809;53.300;6.614;2022-10-16T06:21:25;4.05;;;1.70;;
52942;SDS011;38809;53.300;6.614;2022-10-16T06:23:51;4.57;;;1.42;;
52942;SDS011;38809;53.300;6.614;2022-10-16T06:26:19;3.88;;;1.63;;
52942;SDS011;38809;53.300;6.614;2022-10-16T06:28:46;3.58;;;1.60;;
52942;SDS011;38809;53.300;6.614;2022-10-16T06:33:38;3.88;;;1.73;;
52942;SDS011;38809;53.300;6.614;2022-10-16T06:38:33;3.40;;;1.58;;
52942;SDS011;38809;53.300;6.614;2022-10-16T06:40:59;3.72;;;1.60;;
52942;SDS011;38809;53.300;6.614;2022-10-16T06:43:25;5.45;;;1.65;;
52942;SDS011;38809;53.300;6.614;2022-10-16T06:45:54;3.75;;;1.88;;
52942;SDS011;38809;53.300;6.614;2022-10-16T06:48:21;3.50;;;1.92;;
52942;SDS011;38809;53.300;6.614;2022-10-16T06:53:44;3.03;;;1.40;;
52942;SDS011;38809;53.300;6.614;2022-10-16T06:56:20;3.75;;;1.55;;
52942;SDS011;38809;53.300;6.614;2022-10-16T06:58:48;3.33;;;1.35;;
52942;SDS011;38809;53.300;6.614;2022-10-16T07:01:16;3.70;;;1.50;;
52942;SDS011;38809;53.300;6.614;2022-10-16T07:03:43;5.85;;;1.75;;
52942;SDS011;38809;53.300;6.614;2022-10-16T07:06:11;3.65;;;1.73;;
52942;SDS011;38809;53.300;6.614;2022-10-16T07:08:39;4.70;;;1.90;;
52942;SDS011;38809;53.300;6.614;2022-10-16T07:11:08;5.13;;;2.03;;
52942;SDS011;38809;53.300;6.614;2022-10-16T07:13:36;3.67;;;1.55;;
52942;SDS011;38809;53.300;6.614;2022-10-16T07:16:06;5.28;;;1.80;;
52942;SDS011;38809;53.300;6.614;2022-10-16T07:18:40;3.47;;;1.50;;
52942;SDS011;38809;53.300;6.614;2022-10-16T07:21:11;2.97;;;1.30;;
52942;SDS011;38809;53.300;6.614;2022-10-16T07:23:38;6.28;;;1.60;;
52942;SDS011;38809;53.300;6.614;2022-10-16T07:26:05;3.83;;;1.30;;
52942;SDS011;38809;53.300;6.614;2022-10-16T07:28:31;5.55;;;1.63;;
52942;SDS011;38809;53.300;6.614;2022-10-16T07:33:36;5.57;;;1.80;;
52942;SDS011;38809;53.300;6.614;2022-10-16T07:36:04;3.25;;;1.88;;
52942;SDS011;38809;53.300;6.614;2022-10-16T07:38:30;3.85;;;1.50;;
52942;SDS011;38809;53.300;6.614;2022-10-16T07:40:57;3.17;;;1.50;;
52942;SDS011;38809;53.300;6.614;2022-10-16T07:43:24;3.80;;;1.20;;
52942;SDS011;38809;53.300;6.614;2022-10-16T07:45:51;4.70;;;1.13;;
52942;SDS011;38809;53.300;6.614;2022-10-16T07:48:17;6.88;;;2.15;;
52942;SDS011;38809;53.300;6.614;2022-10-16T07:50:43;4.82;;;1.33;;
52942;SDS011;38809;53.300;6.614;2022-10-16T07:53:10;4.95;;;1.33;;
52942;SDS011;38809;53.300;6.614;2022-10-16T07:58:02;4.35;;;1.38;;
52942;SDS011;38809;53.300;6.614;2022-10-16T08:00:28;4.03;;;1.25;;
52942;SDS011;38809;53.300;6.614;2022-10-16T08:02:54;3.37;;;1.33;;
52942;SDS011;38809;53.300;6.614;2022-10-16T08:05:19;5.60;;;1.40;;
52942;SDS011;38809;53.300;6.614;2022-10-16T08:07:49;4.43;;;2.08;;
52942;SDS011;38809;53.300;6.614;2022-10-16T08:10:15;4.00;;;1.80;;
52942;SDS011;38809;53.300;6.614;2022-10-16T08:12:42;3.53;;;1.45;;
52942;SDS011;38809;53.300;6.614;2022-10-16T08:15:08;5.88;;;1.40;;
52942;SDS011;38809;53.300;6.614;2022-10-16T08:17:34;2.20;;;1.20;;
52942;SDS011;38809;53.300;6.614;2022-10-16T08:20:00;3.70;;;1.60;;
52942;SDS011;38809;53.300;6.614;2022-10-16T08:22:26;3.88;;;1.80;;
52942;SDS011;38809;53.300;6.614;2022-10-16T08:24:52;4.38;;;2.10;;
52942;SDS011;38809;53.300;6.614;2022-10-16T08:27:18;6.40;;;1.80;;
52942;SDS011;38809;53.300;6.614;2022-10-16T08:29:43;5.60;;;2.22;;
52942;SDS011;38809;53.300;6.614;2022-10-16T08:32:09;6.45;;;2.13;;
52942;SDS011;38809;53.300;6.614;2022-10-16T08:34:35;5.03;;;1.83;;
52942;SDS011;38809;53.300;6.614;2022-10-16T08:37:00;4.72;;;1.48;;
52942;SDS011;38809;53.300;6.614;2022-10-16T08:39:27;4.18;;;1.85;;
52942;SDS011;38809;53.300;6.614;2022-10-16T08:44:30;5.90;;;1.70;;
52942;SDS011;38809;53.300;6.614;2022-10-16T08:47:24;5.65;;;2.03;;
52942;SDS011;38809;53.300;6.614;2022-10-16T08:49:59;4.20;;;1.20;;
52942;SDS011;38809;53.300;6.614;2022-10-16T08:52:34;4.22;;;1.60;;
52942;SDS011;38809;53.300;6.614;2022-10-16T08:55:03;5.63;;;1.80;;
52942;SDS011;38809;53.300;6.614;2022-10-16T08:57:29;3.97;;;1.70;;
52942;SDS011;38809;53.300;6.614;2022-10-16T09:00:08;3.60;;;1.75;;
52942;SDS011;38809;53.300;6.614;2022-10-16T09:18:47;6.10;;;1.60;;
52942;SDS011;38809;53.300;6.614;2022-10-16T09:21:27;7.40;;;1.70;;
52942;SDS011;38809;53.300;6.614;2022-10-16T09:26:51;8.57;;;1.75;;
52942;SDS011;38809;53.300;6.614;2022-10-16T09:29:18;7.57;;;1.30;;
52942;SDS011;38809;53.300;6.614;2022-10-16T09:31:45;6.35;;;1.20;;
52942;SDS011;38809;53.300;6.614;2022-10-16T09:34:24;5.07;;;1.48;;
52942;SDS011;38809;53.300;6.614;2022-10-16T09:37:04;6.47;;;1.48;;
52942;SDS011;38809;53.300;6.614;2022-10-16T09:39:48;5.00;;;1.13;;
52942;SDS011;38809;53.300;6.614;2022-10-16T09:42:18;5.00;;;1.80;;
52942;SDS011;38809;53.300;6.614;2022-10-16T09:44:49;4.65;;;1.38;;
52942;SDS011;38809;53.300;6.614;2022-10-16T09:49:52;6.53;;;1.55;;
52942;SDS011;38809;53.300;6.614;2022-10-16T09:52:20;3.80;;;1.40;;
52942;SDS011;38809;53.300;6.614;2022-10-16T09:54:53;6.65;;;1.50;;
52942;SDS011;38809;53.300;6.614;2022-10-16T09:57:20;6.97;;;1.52;;
52942;SDS011;38809;53.300;6.614;2022-10-16T09:59:50;6.65;;;1.75;;
52942;SDS011;38809;53.300;6.614;2022-10-16T10:02:36;7.55;;;1.98;;
52942;SDS011;38809;53.300;6.614;2022-10-16T10:05:04;7.10;;;1.20;;
52942;SDS011;38809;53.300;6.614;2022-10-16T10:07:42;9.02;;;1.45;;
52942;SDS011;38809;53.300;6.614;2022-10-16T10:10:19;6.25;;;1.95;;
52942;SDS011;38809;53.300;6.614;2022-10-16T10:15:13;10.20;;;1.77;;
52942;SDS011;38809;53.300;6.614;2022-10-16T10:17:47;6.05;;;1.60;;
52942;SDS011;38809;53.300;6.614;2022-10-16T10:23:01;7.10;;;1.10;;
52942;SDS011;38809;53.300;6.614;2022-10-16T10:28:49;6.78;;;1.77;;
52942;SDS011;38809;53.300;6.614;2022-10-16T10:31:20;8.70;;;1.60;;
52942;SDS011;38809;53.300;6.614;2022-10-16T10:36:39;6.40;;;2.07;;
52942;SDS011;38809;53.300;6.614;2022-10-16T10:39:08;7.00;;;2.08;;
52942;SDS011;38809;53.300;6.614;2022-10-16T10:44:35;6.15;;;1.58;;
52942;SDS011;38809;53.300;6.614;2022-10-16T11:03:31;7.95;;;1.67;;
52942;SDS011;38809;53.300;6.614;2022-10-16T11:08:36;7.32;;;1.50;;
52942;SDS011;38809;53.300;6.614;2022-10-16T11:11:20;5.07;;;1.35;;
52942;SDS011;38809;53.300;6.614;2022-10-16T11:14:02;8.82;;;1.52;;
52942;SDS011;38809;53.300;6.614;2022-10-16T11:16:38;10.50;;;1.63;;
52942;SDS011;38809;53.300;6.614;2022-10-16T11:22:11;8.52;;;1.60;;
52942;SDS011;38809;53.300;6.614;2022-10-16T11:27:41;7.63;;;2.22;;
52942;SDS011;38809;53.300;6.614;2022-10-16T11:30:25;6.38;;;1.58;;
52942;SDS011;38809;53.300;6.614;2022-10-16T11:35:23;7.47;;;1.30;;
52942;SDS011;38809;53.300;6.614;2022-10-16T11:38:02;7.28;;;1.30;;
52942;SDS011;38809;53.300;6.614;2022-10-16T11:40:35;10.10;;;1.88;;
52942;SDS011;38809;53.300;6.614;2022-10-16T11:43:24;7.70;;;1.50;;
52942;SDS011;38809;53.300;6.614;2022-10-16T11:45:58;8.55;;;1.38;;
52942;SDS011;38809;53.300;6.614;2022-10-16T11:48:36;7.35;;;1.35;;
52942;SDS011;38809;53.300;6.614;2022-10-16T11:56:17;6.35;;;1.48;;
52942;SDS011;38809;53.300;6.614;2022-10-16T12:09:32;6.28;;;1.50;;
52942;SDS011;38809;53.300;6.614;2022-10-16T12:11:59;8.68;;;1.27;;
52942;SDS011;38809;53.300;6.614;2022-10-16T12:17:01;8.75;;;1.55;;
52942;SDS011;38809;53.300;6.614;2022-10-16T12:19:31;8.68;;;2.03;;
52942;SDS011;38809;53.300;6.614;2022-10-16T12:24:34;6.80;;;1.77;;
52942;SDS011;38809;53.300;6.614;2022-10-16T12:27:02;9.70;;;2.08;;
52942;SDS011;38809;53.300;6.614;2022-10-16T12:29:33;9.75;;;1.55;;
52942;SDS011;38809;53.300;6.614;2022-10-16T12:32:06;8.95;;;1.95;;
52942;SDS011;38809;53.300;6.614;2022-10-16T12:34:52;7.13;;;1.98;;
52942;SDS011;38809;53.300;6.614;2022-10-16T12:37:21;11.15;;;1.65;;
52942;SDS011;38809;53.300;6.614;2022-10-16T12:39:49;9.68;;;1.77;;
52942;SDS011;38809;53.300;6.614;2022-10-16T12:44:51;5.20;;;1.17;;
52942;SDS011;38809;53.300;6.614;2022-10-16T12:49:55;5.88;;;1.50;;
52942;SDS011;38809;53.300;6.614;2022-10-16T12:52:54;6.40;;;1.25;;
52942;SDS011;38809;53.300;6.614;2022-10-16T12:55:16;9.63;;;1.60;;
52942;SDS011;38809;53.300;6.614;2022-10-16T12:58:02;7.63;;;1.38;;
52942;SDS011;38809;53.300;6.614;2022-10-16T13:00:44;7.88;;;1.48;;
52942;SDS011;38809;53.300;6.614;2022-10-16T13:09:18;5.20;;;1.40;;
52942;SDS011;38809;53.300;6.614;2022-10-16T13:20:25;6.18;;;1.35;;
52942;SDS011;38809;53.300;6.614;2022-10-16T13:23:13;6.88;;;1.23;;
52942;SDS011;38809;53.300;6.614;2022-10-16T13:28:35;6.90;;;1.70;;
52942;SDS011;38809;53.300;6.614;2022-10-16T13:31:03;10.35;;;1.70;;
52942;SDS011;38809;53.300;6.614;2022-10-16T13:36:20;9.45;;;1.63;;
52942;SDS011;38809;53.300;6.614;2022-10-16T13:39:01;6.38;;;1.15;;
52942;SDS011;38809;53.300;6.614;2022-10-16T13:41:38;7.75;;;1.42;;
52942;SDS011;38809;53.300;6.614;2022-10-16T13:44:03;5.90;;;1.33;;
52942;SDS011;38809;53.300;6.614;2022-10-16T13:46:30;9.45;;;1.55;;
52942;SDS011;38809;53.300;6.614;2022-10-16T13:49:03;10.50;;;1.77;;
52942;SDS011;38809;53.300;6.614;2022-10-16T13:51:30;7.88;;;1.60;;
52942;SDS011;38809;53.300;6.614;2022-10-16T13:53:57;5.85;;;1.10;;
52942;SDS011;38809;53.300;6.614;2022-10-16T13:56:27;5.50;;;1.02;;
52942;SDS011;38809;53.300;6.614;2022-10-16T13:59:04;7.60;;;1.20;;
52942;SDS011;38809;53.300;6.614;2022-10-16T14:01:32;8.05;;;1.40;;
52942;SDS011;38809;53.300;6.614;2022-10-16T14:04:05;8.63;;;1.58;;
52942;SDS011;38809;53.300;6.614;2022-10-16T14:06:33;5.07;;;0.90;;
52942;SDS011;38809;53.300;6.614;2022-10-16T14:09:06;4.80;;;1.38;;
52942;SDS011;38809;53.300;6.614;2022-10-16T14:11:44;10.07;;;1.60;;
52942;SDS011;38809;53.300;6.614;2022-10-16T14:14:12;9.18;;;1.05;;
52942;SDS011;38809;53.300;6.614;2022-10-16T14:16:40;10.23;;;1.50;;
52942;SDS011;38809;53.300;6.614;2022-10-16T14:19:13;5.03;;;1.20;;
52942;SDS011;38809;53.300;6.614;2022-10-16T14:21:51;6.50;;;1.48;;
52942;SDS011;38809;53.300;6.614;2022-10-16T14:24:30;4.35;;;1.15;;
52942;SDS011;38809;53.300;6.614;2022-10-16T14:26:58;3.88;;;1.50;;
52942;SDS011;38809;53.300;6.614;2022-10-16T14:29:25;5.28;;;1.30;;
52942;SDS011;38809;53.300;6.614;2022-10-16T14:32:00;5.40;;;1.23;;
52942;SDS011;38809;53.300;6.614;2022-10-16T14:34:35;5.93;;;1.25;;
52942;SDS011;38809;53.300;6.614;2022-10-16T14:37:26;8.25;;;1.52;;
52942;SDS011;38809;53.300;6.614;2022-10-16T14:39:54;4.65;;;1.10;;
52942;SDS011;38809;53.300;6.614;2022-10-16T14:42:21;6.70;;;1.20;;
52942;SDS011;38809;53.300;6.614;2022-10-16T14:44:50;4.22;;;1.33;;
52942;SDS011;38809;53.300;6.614;2022-10-16T14:47:21;7.72;;;1.20;;
52942;SDS011;38809;53.300;6.614;2022-10-16T14:49:54;8.02;;;1.17;;
52942;SDS011;38809;53.300;6.614;2022-10-16T14:52:22;7.32;;;1.40;;
52942;SDS011;38809;53.300;6.614;2022-10-16T14:54:48;8.20;;;1.83;;
52942;SDS011;38809;53.300;6.614;2022-10-16T14:57:24;8.35;;;1.50;;
52942;SDS011;38809;53.300;6.614;2022-10-16T14:59:53;7.05;;;1.45;;
52942;SDS011;38809;53.300;6.614;2022-10-16T15:02:27;4.95;;;1.48;;
52942;SDS011;38809;53.300;6.614;2022-10-16T15:04:56;7.07;;;1.20;;
52942;SDS011;38809;53.300;6.614;2022-10-16T15:07:23;6.72;;;1.42;;
52942;SDS011;38809;53.300;6.614;2022-10-16T15:09:49;6.45;;;2.25;;
52942;SDS011;38809;53.300;6.614;2022-10-16T15:12:16;7.45;;;1.65;;
52942;SDS011;38809;53.300;6.614;2022-10-16T15:14:41;7.35;;;1.90;;
52942;SDS011;38809;53.300;6.614;2022-10-16T15:17:10;7.90;;;1.30;;
52942;SDS011;38809;53.300;6.614;2022-10-16T15:19:36;7.72;;;1.42;;
52942;SDS011;38809;53.300;6.614;2022-10-16T15:22:02;6.35;;;1.55;;
52942;SDS011;38809;53.300;6.614;2022-10-16T15:24:28;7.32;;;1.10;;
52942;SDS011;38809;53.300;6.614;2022-10-16T15:26:53;6.00;;;1.60;;
52942;SDS011;38809;53.300;6.614;2022-10-16T15:29:19;7.38;;;1.67;;
52942;SDS011;38809;53.300;6.614;2022-10-16T15:31:45;8.13;;;1.40;;
52942;SDS011;38809;53.300;6.614;2022-10-16T15:34:12;7.05;;;1.40;;
52942;SDS011;38809;53.300;6.614;2022-10-16T15:36:39;9.15;;;1.35;;
52942;SDS011;38809;53.300;6.614;2022-10-16T15:41:36;9.57;;;1.75;;
52942;SDS011;38809;53.300;6.614;2022-10-16T15:44:02;6.68;;;1.38;;
52942;SDS011;38809;53.300;6.614;2022-10-16T15:46:28;6.25;;;1.50;;
52942;SDS011;38809;53.300;6.614;2022-10-16T15:48:56;6.25;;;1.50;;
52942;SDS011;38809;53.300;6.614;2022-10-16T15:51:23;12.15;;;1.83;;
52942;SDS011;38809;53.300;6.614;2022-10-16T15:53:49;8.45;;;2.05;;
52942;SDS011;38809;53.300;6.614;2022-10-16T15:56:16;8.63;;;1.40;;
52942;SDS011;38809;53.300;6.614;2022-10-16T15:58:42;6.80;;;1.55;;
52942;SDS011;38809;53.300;6.614;2022-10-16T16:01:08;9.43;;;1.50;;
52942;SDS011;38809;53.300;6.614;2022-10-16T16:03:37;7.43;;;1.75;;
52942;SDS011;38809;53.300;6.614;2022-10-16T16:06:07;9.55;;;1.35;;
52942;SDS011;38809;53.300;6.614;2022-10-16T16:08:34;6.60;;;1.63;;
52942;SDS011;38809;53.300;6.614;2022-10-16T16:11:00;11.07;;;1.73;;
52942;SDS011;38809;53.300;6.614;2022-10-16T16:13:31;6.80;;;1.38;;
52942;SDS011;38809;53.300;6.614;2022-10-16T16:15:56;5.63;;;1.70;;
52942;SDS011;38809;53.300;6.614;2022-10-16T16:18:22;6.78;;;1.65;;
52942;SDS011;38809;53.300;6.614;2022-10-16T16:20:49;6.57;;;1.55;;
52942;SDS011;38809;53.300;6.614;2022-10-16T16:23:15;9.05;;;1.30;;
52942;SDS011;38809;53.300;6.614;2022-10-16T16:25:41;6.90;;;1.42;;
52942;SDS011;38809;53.300;6.614;2022-10-16T16:28:07;6.60;;;1.15;;
52942;SDS011;38809;53.300;6.614;2022-10-16T16:30:35;6.10;;;1.05;;
52942;SDS011;38809;53.300;6.614;2022-10-16T16:33:01;7.82;;;1.30;;
52942;SDS011;38809;53.300;6.614;2022-10-16T16:35:27;4.68;;;1.60;;
52942;SDS011;38809;53.300;6.614;2022-10-16T16:37:52;6.40;;;1.37;;
52942;SDS011;38809;53.300;6.614;2022-10-16T16:40:18;7.15;;;1.38;;
52942;SDS011;38809;53.300;6.614;2022-10-16T16:42:44;12.25;;;1.73;;
52942;SDS011;38809;53.300;6.614;2022-10-16T16:45:12;5.30;;;1.25;;
52942;SDS011;38809;53.300;6.614;2022-10-16T16:47:37;6.63;;;1.70;;
52942;SDS011;38809;53.300;6.614;2022-10-16T16:50:03;7.03;;;1.73;;
52942;SDS011;38809;53.300;6.614;2022-10-16T16:52:30;9.45;;;1.75;;
52942;SDS011;38809;53.300;6.614;2022-10-16T16:54:55;3.65;;;1.33;;
52942;SDS011;38809;53.300;6.614;2022-10-16T16:57:21;8.03;;;1.63;;
52942;SDS011;38809;53.300;6.614;2022-10-16T16:59:49;5.93;;;1.58;;
52942;SDS011;38809;53.300;6.614;2022-10-16T17:02:15;6.60;;;1.30;;
52942;SDS011;38809;53.300;6.614;2022-10-16T17:04:41;5.03;;;1.40;;
52942;SDS011;38809;53.300;6.614;2022-10-16T17:07:06;6.88;;;1.77;;
52942;SDS011;38809;53.300;6.614;2022-10-16T17:09:32;3.95;;;0.98;;
52942;SDS011;38809;53.300;6.614;2022-10-16T17:11:59;3.78;;;0.95;;
52942;SDS011;38809;53.300;6.614;2022-10-16T17:14:24;4.75;;;1.13;;
52942;SDS011;38809;53.300;6.614;2022-10-16T17:16:51;6.65;;;1.08;;
52942;SDS011;38809;53.300;6.614;2022-10-16T17:19:18;5.18;;;1.10;;
52942;SDS011;38809;53.300;6.614;2022-10-16T17:21:44;5.97;;;1.30;;
52942;SDS011;38809;53.300;6.614;2022-10-16T17:24:12;4.22;;;1.20;;
52942;SDS011;38809;53.300;6.614;2022-10-16T17:26:38;4.28;;;1.20;;
52942;SDS011;38809;53.300;6.614;2022-10-16T17:29:06;8.65;;;1.50;;
52942;SDS011;38809;53.300;6.614;2022-10-16T17:31:33;11.35;;;1.52;;
52942;SDS011;38809;53.300;6.614;2022-10-16T17:34:02;8.02;;;1.52;;